createdAt,value
2022-10-04T00:39:14.033Z,9.77
2022-10-04T00:41:50.421Z,10.43
2022-10-04T00:44:23.427Z,9.57
2022-10-04T00:46:52.632Z,9.03
2022-10-04T00:49:25.915Z,9.83
2022-10-04T00:52:02.091Z,8.67
2022-10-04T00:54:39.542Z,9.33
2022-10-04T00:57:11.882Z,9.67
2022-10-04T00:59:47.705Z,9.37
2022-10-04T01:02:22.465Z,9.23
2022-10-04T01:04:57.311Z,9.43
2022-10-04T01:07:36.535Z,9.47
2022-10-04T01:10:13.949Z,9.23
2022-10-04T01:13:15.394Z,9.27
2022-10-04T01:15:54.194Z,8.33
2022-10-04T01:18:21.472Z,8.63
2022-10-04T01:21:06.114Z,9.30
2022-10-04T01:23:50.024Z,9.17
2022-10-04T01:26:32.211Z,9.07
2022-10-04T01:29:06.318Z,9.40
2022-10-04T01:31:36.516Z,9.43
2022-10-04T01:34:06.040Z,9.53
2022-10-04T01:36:34.564Z,9.40
2022-10-04T01:39:02.686Z,9.40
2022-10-04T01:41:47.611Z,9.10
2022-10-04T01:44:37.450Z,10.30
2022-10-04T01:47:09.421Z,9.53
2022-10-04T01:49:39.951Z,8.73
2022-10-04T01:52:15.395Z,8.50
2022-10-04T01:54:50.884Z,9.23
2022-10-04T01:57:24.635Z,8.97
2022-10-04T01:59:55.466Z,8.93
2022-10-04T02:02:57.963Z,9.40
2022-10-04T02:05:34.592Z,8.50
2022-10-04T02:08:12.193Z,8.53
2022-10-04T02:10:43.502Z,9.00
2022-10-04T02:13:15.638Z,9.00
2022-10-04T02:15:45.251Z,8.70
2022-10-04T02:18:15.697Z,8.30
2022-10-04T02:20:44.263Z,9.07
2022-10-04T02:23:13.396Z,9.00
2022-10-04T02:25:41.091Z,8.37
2022-10-04T02:28:16.969Z,8.23
2022-10-04T02:31:09.337Z,8.67
2022-10-04T02:33:46.163Z,7.67
2022-10-04T02:36:14.642Z,8.33
2022-10-04T02:39:16.291Z,7.90
2022-10-04T02:42:22.764Z,7.80
2022-10-04T02:45:04.840Z,8.43
2022-10-04T02:47:44.239Z,8.37
2022-10-04T02:50:31.389Z,8.07
2022-10-04T02:53:15.338Z,8.70
2022-10-04T02:55:44.140Z,8.67
2022-10-04T02:58:16.371Z,7.90
2022-10-04T03:00:49.828Z,8.07
2022-10-04T03:03:30.520Z,8.67
2022-10-04T03:06:04.117Z,8.73
2022-10-04T03:08:36.810Z,9.20
2022-10-04T03:11:05.813Z,8.93
2022-10-04T03:13:34.738Z,7.60
2022-10-04T03:16:02.549Z,8.87
2022-10-04T03:18:31.537Z,8.20
2022-10-04T03:21:02.229Z,8.60
2022-10-04T03:23:31.813Z,8.20
2022-10-04T03:26:34.560Z,8.70
2022-10-04T03:29:03.864Z,9.07
2022-10-04T03:31:45.346Z,9.47
2022-10-04T03:34:25.684Z,8.50
2022-10-04T03:36:56.466Z,9.17
2022-10-04T03:39:35.031Z,9.43
2022-10-04T03:42:08.240Z,8.00
2022-10-04T03:44:35.642Z,8.53
2022-10-04T03:47:07.566Z,8.77
2022-10-04T03:49:38.129Z,9.67
2022-10-04T03:52:07.763Z,9.57
2022-10-04T03:54:37.396Z,9.10
2022-10-04T03:57:06.610Z,9.30
2022-10-04T03:59:35.299Z,9.33
2022-10-04T04:02:34.187Z,9.17
2022-10-04T04:05:24.780Z,9.43
2022-10-04T04:08:27.036Z,9.43
2022-10-04T04:10:58.656Z,10.13
2022-10-04T04:13:54.861Z,9.90
2022-10-04T04:16:26.533Z,10.53
2022-10-04T04:18:56.350Z,10.63
2022-10-04T04:21:26.199Z,10.43
2022-10-04T04:24:01.960Z,10.33
2022-10-04T04:26:43.088Z,11.27
2022-10-04T04:29:43.872Z,11.50
2022-10-04T04:32:38.711Z,11.67
2022-10-04T04:35:08.757Z,11.77
2022-10-04T04:37:39.653Z,11.23
2022-10-04T04:40:25.132Z,11.30
2022-10-04T04:42:53.553Z,11.60
2022-10-04T04:45:26.508Z,11.37
2022-10-04T04:47:57.672Z,11.70
2022-10-04T04:50:34.628Z,11.60
2022-10-04T04:53:10.497Z,12.27
2022-10-04T04:56:05.190Z,11.87
2022-10-04T04:58:47.029Z,11.87
2022-10-04T05:01:17.180Z,12.43
2022-10-04T05:03:44.351Z,13.33
2022-10-04T05:06:44.702Z,12.77
2022-10-04T05:09:23.915Z,13.23
2022-10-04T05:11:53.826Z,12.87
2022-10-04T05:14:21.556Z,12.70
2022-10-04T05:16:58.824Z,13.43
2022-10-04T05:19:33.516Z,14.07
2022-10-04T05:22:08.710Z,13.50
2022-10-04T05:24:43.319Z,13.57
2022-10-04T05:27:18.303Z,14.30
2022-10-04T05:30:21.883Z,14.47
2022-10-04T05:33:07.829Z,13.97
2022-10-04T05:35:49.228Z,15.20
2022-10-04T05:38:24.394Z,15.60
2022-10-04T05:41:19.402Z,15.57
2022-10-04T05:43:52.718Z,15.97
2022-10-04T05:46:31.185Z,14.70
2022-10-04T05:49:18.869Z,16.17
2022-10-04T05:51:56.797Z,15.47
2022-10-04T05:54:27.332Z,15.60
2022-10-04T05:57:32.109Z,15.70
2022-10-04T06:00:04.573Z,14.60
2022-10-04T06:02:56.183Z,15.23
2022-10-04T06:05:52.233Z,14.67
2022-10-04T06:08:25.194Z,14.30
2022-10-04T06:11:30.214Z,13.80
2022-10-04T06:14:20.293Z,14.40
2022-10-04T06:17:11.892Z,13.33
2022-10-04T06:23:07.098Z,13.43
2022-10-04T06:26:03.825Z,12.47
2022-10-04T07:02:18.286Z,10.27
2022-10-04T07:05:08.186Z,10.50
2022-10-04T07:07:48.361Z,12.40
2022-10-04T07:10:33.737Z,9.87
2022-10-04T07:13:10.699Z,9.73
2022-10-04T07:29:47.375Z,10.47
2022-10-04T07:32:26.968Z,10.50
2022-10-04T07:35:10.141Z,10.63
2022-10-04T07:37:50.167Z,10.07
2022-10-04T07:40:27.201Z,9.27
2022-10-04T07:43:06.742Z,10.57
2022-10-04T07:45:37.913Z,9.87
2022-10-04T07:48:24.264Z,10.13
2022-10-04T07:51:11.082Z,9.27
2022-10-04T07:54:18.739Z,10.57
2022-10-04T07:56:58.870Z,10.17
2022-10-04T07:59:46.539Z,9.93
2022-10-04T08:02:45.068Z,10.13
2022-10-04T08:05:23.836Z,9.97
2022-10-04T08:08:07.002Z,9.53
2022-10-04T08:10:58.216Z,9.17
2022-10-04T08:13:38.353Z,10.13
2022-10-04T08:16:24.201Z,9.43
2022-10-04T08:19:12.902Z,9.30
2022-10-04T08:35:02.797Z,8.40
2022-10-04T08:37:55.694Z,7.93
2022-10-04T08:40:56.261Z,8.40
2022-10-04T08:43:34.419Z,8.43
2022-10-04T08:46:53.521Z,9.07
2022-10-04T08:49:45.649Z,8.40
2022-10-04T09:00:40.180Z,7.30
2022-10-04T09:03:28.813Z,8.10
2022-10-04T09:06:14.696Z,7.80
2022-10-04T09:09:16.046Z,7.60
2022-10-04T09:12:11.042Z,6.97
2022-10-04T09:15:03.300Z,6.87
2022-10-04T09:17:42.638Z,7.03
2022-10-04T09:20:37.769Z,6.97
2022-10-04T09:23:37.642Z,5.50
2022-10-04T09:26:25.052Z,6.75
2022-10-04T09:29:29.447Z,6.57
2022-10-04T09:32:02.406Z,6.00
2022-10-04T09:34:54.485Z,6.70
2022-10-04T09:37:27.281Z,6.43
2022-10-04T09:41:04.236Z,5.60
2022-10-04T09:46:10.483Z,5.97
2022-10-04T09:49:16.474Z,5.77
2022-10-04T09:52:02.450Z,5.30
2022-10-04T09:55:05.892Z,4.67
2022-10-04T09:58:06.369Z,4.70
2022-10-04T10:01:17.157Z,4.40
2022-10-04T10:03:55.532Z,4.43
2022-10-04T10:06:32.975Z,4.30
2022-10-04T10:09:12.038Z,3.70
2022-10-04T10:12:10.481Z,3.77
2022-10-04T10:14:48.712Z,3.90
2022-10-04T10:17:32.127Z,4.50
2022-10-04T10:20:05.121Z,3.80
2022-10-04T10:23:00.344Z,4.23
2022-10-04T10:25:48.189Z,3.70
2022-10-04T10:28:41.030Z,3.93
2022-10-04T10:31:38.869Z,4.03
2022-10-04T10:34:14.818Z,3.80
2022-10-04T10:37:03.914Z,4.63
2022-10-04T10:39:57.049Z,4.43
2022-10-04T10:42:52.102Z,4.03
2022-10-04T10:45:51.679Z,4.07
2022-10-04T10:48:29.435Z,3.63
2022-10-04T10:51:23.190Z,4.17
2022-10-04T10:54:40.435Z,3.90
2022-10-04T10:57:34.387Z,3.70
2022-10-04T11:00:21.066Z,4.57
2022-10-04T11:03:29.801Z,4.20
2022-10-04T11:06:02.265Z,4.27
2022-10-04T11:08:59.366Z,4.47
2022-10-04T11:11:59.880Z,4.20
2022-10-04T11:14:32.294Z,3.63
2022-10-04T11:17:26.024Z,3.73
2022-10-04T11:20:12.179Z,3.33
2022-10-04T11:23:00.953Z,4.03
2022-10-04T11:25:58.092Z,3.30
2022-10-04T11:29:06.696Z,3.50
2022-10-04T11:32:03.584Z,3.37
2022-10-04T11:34:49.081Z,3.83
2022-10-04T11:37:33.889Z,3.77
2022-10-04T11:40:19.686Z,4.37
2022-10-04T11:42:58.657Z,3.87
2022-10-04T11:45:33.825Z,4.37
2022-10-04T11:48:15.010Z,4.27
2022-10-04T11:51:12.666Z,4.60
2022-10-04T11:54:08.146Z,3.90
2022-10-04T11:56:56.632Z,4.03
2022-10-04T11:59:26.373Z,5.30
2022-10-04T12:02:37.938Z,5.10
2022-10-04T12:05:51.703Z,4.77
2022-10-04T12:08:33.670Z,4.50
2022-10-04T12:11:47.227Z,5.07
2022-10-04T12:14:52.734Z,4.43
2022-10-04T12:18:01.805Z,4.80
2022-10-04T12:20:33.217Z,4.23
2022-10-04T12:23:20.670Z,4.87
2022-10-04T12:26:18.475Z,4.93
2022-10-04T12:29:06.022Z,4.83
2022-10-04T12:31:41.781Z,4.80
2022-10-04T12:34:14.883Z,4.40
2022-10-04T12:37:11.708Z,4.73
2022-10-04T12:40:00.467Z,4.60
2022-10-04T12:42:51.163Z,4.90
2022-10-04T12:45:58.189Z,4.70
2022-10-04T12:48:33.647Z,4.77
2022-10-04T12:51:04.407Z,5.47
2022-10-04T12:53:58.878Z,4.70
2022-10-04T12:56:50.567Z,4.27
2022-10-04T12:59:32.233Z,4.80
2022-10-04T13:02:12.043Z,5.33
2022-10-04T13:04:48.860Z,5.17
2022-10-04T13:07:34.580Z,4.67
2022-10-04T13:10:44.574Z,4.87
2022-10-04T13:13:54.328Z,5.20
2022-10-04T13:19:29.290Z,5.00
2022-10-04T13:22:54.897Z,5.13
2022-10-04T13:25:38.357Z,4.77
2022-10-04T13:28:42.807Z,5.77
2022-10-04T13:31:40.408Z,5.60
2022-10-04T13:34:10.363Z,4.80
2022-10-04T13:37:01.945Z,4.73
2022-10-04T13:40:03.246Z,4.67
2022-10-04T13:42:48.795Z,4.87
2022-10-04T13:45:41.634Z,5.50
2022-10-04T13:48:38.767Z,4.73
2022-10-04T13:51:40.270Z,5.03
2022-10-04T13:54:31.834Z,4.03
2022-10-04T13:57:28.322Z,4.67
2022-10-04T14:00:15.069Z,4.50
2022-10-04T14:03:03.391Z,4.50
2022-10-04T14:05:48.293Z,4.37
2022-10-04T14:08:41.301Z,4.30
2022-10-04T14:11:27.086Z,4.17
2022-10-04T14:14:19.146Z,4.57
2022-10-04T14:17:24.000Z,4.07
2022-10-04T14:19:58.277Z,4.50
2022-10-04T14:22:53.844Z,4.47
2022-10-04T14:25:35.830Z,3.50
2022-10-04T14:28:24.824Z,3.63
2022-10-04T14:30:57.284Z,3.37
2022-10-04T14:33:54.502Z,3.10
2022-10-04T14:36:24.453Z,3.30
2022-10-04T14:38:54.197Z,3.67
2022-10-04T14:41:45.635Z,3.60
2022-10-04T14:44:53.930Z,3.30
2022-10-04T14:47:32.350Z,3.27
2022-10-04T14:50:00.760Z,3.03
2022-10-04T14:52:44.083Z,3.13
2022-10-04T14:55:27.147Z,3.20
2022-10-04T14:58:31.463Z,3.50
2022-10-04T15:01:17.075Z,3.73
2022-10-04T15:04:12.031Z,3.60
2022-10-04T15:09:01.692Z,3.50
2022-10-04T15:10:59.174Z,3.30
2022-10-04T15:13:59.623Z,3.47
2022-10-04T15:17:14.202Z,3.47
2022-10-04T15:19:44.329Z,3.30
2022-10-04T15:22:53.212Z,3.20
2022-10-04T15:25:42.801Z,3.00
2022-10-04T15:28:28.627Z,3.23
2022-10-04T15:31:20.433Z,3.27
2022-10-04T15:34:22.299Z,3.67
2022-10-04T15:37:14.275Z,3.03
2022-10-04T15:39:58.158Z,3.00
2022-10-04T15:42:29.716Z,2.97
2022-10-04T15:45:17.594Z,2.63
2022-10-04T15:48:03.037Z,2.67
2022-10-04T15:50:39.361Z,2.97
2022-10-04T15:53:19.582Z,2.80
2022-10-04T15:56:04.564Z,3.43
2022-10-04T15:58:49.332Z,3.10
2022-10-04T16:01:45.937Z,3.40
2022-10-04T16:04:32.548Z,3.37
2022-10-04T16:07:15.159Z,2.93
2022-10-04T16:09:42.031Z,3.50
2022-10-04T16:12:47.129Z,3.93
2022-10-04T16:15:36.353Z,3.20
2022-10-04T16:18:32.830Z,2.70
2022-10-04T16:21:25.714Z,3.10
2022-10-04T16:24:18.153Z,3.00
2022-10-04T16:26:45.403Z,3.10
2022-10-04T16:29:35.006Z,3.40
2022-10-04T16:32:19.399Z,3.17
2022-10-04T16:35:05.739Z,3.20
2022-10-04T16:37:43.397Z,4.50
2022-10-04T16:40:12.192Z,3.43
2022-10-04T16:42:45.204Z,3.63
2022-10-04T16:45:14.126Z,3.87
2022-10-04T16:47:52.874Z,3.87
2022-10-04T16:50:47.872Z,4.10
2022-10-04T16:53:45.785Z,4.27
2022-10-04T16:56:21.377Z,4.17
2022-10-04T16:59:01.790Z,4.20
2022-10-04T17:01:43.913Z,4.40
2022-10-04T17:04:25.503Z,4.97
2022-10-04T17:07:08.737Z,4.47
2022-10-04T17:09:50.964Z,4.37
2022-10-04T17:12:19.938Z,4.57
2022-10-04T17:15:14.403Z,3.87
2022-10-04T17:17:54.675Z,5.20
2022-10-04T17:20:41.334Z,5.50
2022-10-04T17:23:39.447Z,4.73
2022-10-04T17:26:17.303Z,4.90
2022-10-04T17:28:56.839Z,4.40
2022-10-04T17:31:45.465Z,5.27
2022-10-04T17:34:39.056Z,5.97
2022-10-04T17:37:29.854Z,5.47
2022-10-04T17:40:17.547Z,5.60
2022-10-04T17:43:19.625Z,5.00
2022-10-04T17:46:17.331Z,4.80
2022-10-04T17:49:15.954Z,4.90
2022-10-04T17:52:06.216Z,5.30
2022-10-04T17:55:14.312Z,5.53
2022-10-04T17:58:08.986Z,5.90
2022-10-04T18:01:00.183Z,5.87
2022-10-04T18:03:37.395Z,5.90
2022-10-04T18:06:43.975Z,6.60
2022-10-04T18:09:19.597Z,7.13
2022-10-04T18:11:51.728Z,8.07
2022-10-04T18:15:00.019Z,7.17
2022-10-04T18:17:45.195Z,10.90
2022-10-04T18:20:32.416Z,10.27
2022-10-04T18:23:27.416Z,12.67
2022-10-04T18:26:11.755Z,10.10
2022-10-04T18:28:39.194Z,10.00
2022-10-04T18:31:23.811Z,7.03
2022-10-04T18:33:54.072Z,5.73
2022-10-04T18:36:24.774Z,6.33
2022-10-04T18:39:19.011Z,6.90
2022-10-04T18:41:58.321Z,6.27
2022-10-04T18:44:31.482Z,6.83
2022-10-04T18:47:00.572Z,6.57
2022-10-04T18:49:43.813Z,7.07
2022-10-04T18:52:10.577Z,7.30
2022-10-04T18:54:49.578Z,8.40
2022-10-04T18:57:33.644Z,8.97
2022-10-04T19:00:39.404Z,10.10
2022-10-04T19:03:21.088Z,9.20
2022-10-04T19:05:51.581Z,10.10
2022-10-04T19:08:39.829Z,9.60
2022-10-04T19:11:16.529Z,8.37
2022-10-04T19:13:58.599Z,8.10
2022-10-04T19:16:51.166Z,8.10
2022-10-04T19:22:34.495Z,8.30
2022-10-04T19:25:35.418Z,7.63
2022-10-04T19:28:14.153Z,8.20
2022-10-04T19:31:10.170Z,7.97
2022-10-04T19:33:48.325Z,7.53
2022-10-04T19:36:31.547Z,8.70
2022-10-04T19:39:16.177Z,9.93
2022-10-04T19:41:50.853Z,9.20
2022-10-04T19:44:42.640Z,9.37
2022-10-04T19:47:44.850Z,10.03
2022-10-04T19:50:25.819Z,9.10
2022-10-04T19:53:22.501Z,9.80
2022-10-04T19:56:00.790Z,9.80
2022-10-04T19:58:47.701Z,9.57
2022-10-04T20:01:24.252Z,9.30
2022-10-04T20:04:11.188Z,10.60
2022-10-04T20:06:55.042Z,9.53
2022-10-04T20:09:33.655Z,9.10
2022-10-04T20:12:01.128Z,9.63
2022-10-04T20:14:27.890Z,9.77
2022-10-04T20:16:54.772Z,9.23
2022-10-04T20:19:43.535Z,9.70
2022-10-04T20:22:13.692Z,8.73
2022-10-04T20:24:40.913Z,9.60
2022-10-04T20:27:33.653Z,9.70
2022-10-04T20:30:23.201Z,8.90
2022-10-04T20:32:55.732Z,9.70
2022-10-04T20:36:00.234Z,8.80
2022-10-04T20:38:50.584Z,9.37
2022-10-04T20:41:29.696Z,9.43
2022-10-04T20:44:01.710Z,9.40
2022-10-04T20:46:40.412Z,9.43
2022-10-04T20:49:16.935Z,8.70
2022-10-04T20:51:50.761Z,9.40
2022-10-04T20:54:18.833Z,9.30
2022-10-04T20:56:51.565Z,10.70
2022-10-04T20:59:18.746Z,12.40
2022-10-04T21:02:07.037Z,17.63
2022-10-04T21:04:41.750Z,15.83
2022-10-04T21:07:14.210Z,12.63
2022-10-04T21:09:42.400Z,10.93
2022-10-04T21:12:39.963Z,9.23
2022-10-04T21:15:21.991Z,9.87
2022-10-04T21:18:02.357Z,10.00
2022-10-04T21:20:42.373Z,9.97
2022-10-04T21:23:17.111Z,9.53
2022-10-04T21:25:44.037Z,10.03
2022-10-04T21:28:34.691Z,9.70
2022-10-04T21:31:02.920Z,9.70
2022-10-04T21:33:31.665Z,10.07
2022-10-04T21:35:58.738Z,10.30
2022-10-04T21:38:26.050Z,10.30
2022-10-04T21:40:52.923Z,9.93
2022-10-04T21:43:19.845Z,12.43
2022-10-04T21:45:47.084Z,21.43
2022-10-04T21:48:14.164Z,14.63
2022-10-04T21:50:41.228Z,11.00
2022-10-04T21:53:08.463Z,10.00
2022-10-04T21:55:35.353Z,9.73
2022-10-04T21:58:02.169Z,10.17
2022-10-04T22:00:29.033Z,10.40
2022-10-04T22:02:56.042Z,10.63
2022-10-04T22:05:23.240Z,10.20
2022-10-04T22:07:50.121Z,11.40
2022-10-04T22:10:17.522Z,10.53
2022-10-04T22:12:44.844Z,9.70
2022-10-04T22:15:12.044Z,10.70
2022-10-04T22:17:38.962Z,11.00
2022-10-04T22:20:06.685Z,10.33
2022-10-04T22:22:37.582Z,11.43
2022-10-04T22:25:18.003Z,11.70
2022-10-04T22:27:45.534Z,10.07
2022-10-04T22:30:21.634Z,10.77
2022-10-04T22:32:49.335Z,10.77
2022-10-04T22:35:19.980Z,11.60
2022-10-04T22:37:48.659Z,11.10
2022-10-04T22:40:17.630Z,11.20
2022-10-04T22:42:45.430Z,11.43
2022-10-04T22:45:21.066Z,11.87
2022-10-04T22:47:48.260Z,11.50
2022-10-04T22:50:24.742Z,11.00
2022-10-04T22:52:51.643Z,10.60
2022-10-04T22:55:19.075Z,11.27
2022-10-04T22:57:46.432Z,11.70
2022-10-04T23:00:13.797Z,11.23
2022-10-04T23:02:40.873Z,11.13
2022-10-04T23:05:19.534Z,11.30
2022-10-04T23:07:47.888Z,11.23
2022-10-04T23:10:18.640Z,10.37
2022-10-04T23:12:47.127Z,10.50
2022-10-04T23:15:20.610Z,11.03
2022-10-04T23:17:54.735Z,10.73
2022-10-04T23:20:22.039Z,10.00
2022-10-04T23:22:51.578Z,10.63
2022-10-04T23:25:21.375Z,10.40
2022-10-04T23:27:48.396Z,10.77
2022-10-04T23:30:20.436Z,10.40
2022-10-04T23:32:53.832Z,11.60
2022-10-04T23:35:26.105Z,11.77
2022-10-04T23:37:55.030Z,11.13
2022-10-04T23:40:23.744Z,11.00
2022-10-04T23:42:53.746Z,10.90
2022-10-04T23:45:25.752Z,11.13
2022-10-04T23:47:55.870Z,10.70
2022-10-04T23:50:29.993Z,10.57
2022-10-04T23:53:02.559Z,11.10
2022-10-04T23:55:34.991Z,10.70
2022-10-04T23:58:03.267Z,10.30
